New Harbor, ME (Heathkit)

43° 52' 34"N, 69° 29' 40"W, Elevation 65 ft.
Eastern Time

Hourly observations for the last 72 hours

Date Time Temperature (°F) Humi-
dity

(%)
Wind
(mph)
Pressure Rain (in)
Air Dew 6 Hour 1 Hr 3 Hr 6 Hr Day
Alt
(in)
Sea
Level

(mb)
Max Min
20 05:00 41 40 95 SW 5 G 12 29.71 1006.1 0.00
20 04:00 42 40 94 SSW 6 G 13 29.71 1006.1 0.00
20 03:00 42 40 94 SSW 5 G 15 29.72 1006.5 0.00
20 02:00 42 40 94 SW 6 G 13 29.71 1006.1 0.00
20 01:00 42 40 42 28 94 SW 7 G 17 29.69 1005.5 0.00
20 00:00 42 40 94 SSW 5 G 17 29.68 1005.1 0.01
19 23:00 33 32 96 WSW 2 G 4 29.70 1005.8 0.01
19 22:00 31 31 98 S 1 G 2 29.70 1005.8 0.01
19 21:00 32 31 98 WSW 2 G 4 29.69 1005.5 0.01
19 20:00 32 31 98 SW 1 G 5 29.70 1005.8 0.01
19 19:00 34 33 42 31 97 SW 2 G 4 29.69 1005.5 0.01
19 18:00 38 36 94 S 3 G 7 29.69 1005.5 0.01
19 17:00 42 40 93 S 4 G 17 29.68 1005.1 0.01
19 16:00 42 40 91 SSW 9 G 18 29.67 1004.8 0.01
19 15:00 41 39 93 SSW 9 G 21 29.68 1005.1 0.01
19 14:00 39 37 94 S 12 G 33 29.68 1005.1 0.01
19 13:00 38 37 38 10 95 SSW 10 G 38 29.73 1006.8 0.01 0.01 0.01 0.01
19 12:00 34 33 95 S 11 G 32 29.79 1008.8 0.00
19 11:00 29 28 95 S 8 G 18 29.87 1011.5 0.00
19 10:00 23 21 92 S 7 G 12 29.91 1012.9 0.00
19 09:00 16 13 89 E 2 G 4 29.95 1014.3 0.00
19 08:00 13 9 83 SW 1 G 3 29.98 1015.3 0.00
19 07:00 11 7 11 5 82 S 2 G 3 29.99 1015.6 0.00
19 06:00 9 5 83 SSE 2 G 4 29.98 1015.3 0.00
19 05:00 9 4 80 SSW 2 G 6 29.99 1015.6 0.00
19 04:00 9 4 79 S 1 G 5 29.99 1015.6 0.00
19 03:00 9 4 80 SSW 2 G 10 29.98 1015.3 0.00
19 02:00 9 3 75 SW 3 G 9 29.96 1014.6 0.00
19 01:00 9 3 14 6 75 SW 4 G 8 29.93 1013.6 0.00
19 00:00 9 2 74 SW 4 G 11 29.92 1013.2 0.00
18 23:00 9 2 72 SSW 6 G 18 29.87 1011.5 0.00
18 22:00 10 3 74 SSW 8 G 17 29.81 1009.5 0.00
18 21:00 11 3 70 SSW 5 G 21 29.79 1008.8 0.00
18 20:00 12 4 69 S 9 G 24 29.77 1008.2 0.00
18 19:00 14 6 26 11 69 SW 11 G 20 29.73 1006.8 0.00
18 18:00 16 8 69 SSW 7 G 34 29.65 1004.1 0.00
18 17:00 19 8 63 SW 16 G 37 29.59 1002.1 0.00
18 16:00 22 12 65 SW 10 G 23 29.53 1000.0 0.00
18 15:00 24 14 66 SSW 11 G 33 29.47 998.0 0.00
18 14:00 25 16 67 SW 12 G 26 29.41 996.0 0.00
18 13:00 26 17 27 21 67 SW 12 G 21 29.38 995.0 0.00
18 12:00 27 19 70 SW 10 G 34 29.33 993.3 0.00
18 11:00 26 18 72 SSW 8 G 30 29.30 992.2 0.00
18 10:00 25 20 81 SW 8 G 23 29.29 991.9 0.00
18 09:00 24 19 82 SSW 8 G 19 29.24 990.2 0.00
18 08:00 24 20 84 SSW 7 G 26 29.21 989.2 0.00
18 07:00 27 23 38 23 83 SW 11 G 22 29.17 987.8 0.00
18 06:00 29 26 87 S 8 G 22 29.11 985.8 0.00
18 05:00 31 28 89 S 11 G 26 29.03 983.1 0.00
18 04:00 33 31 92 SW 7 G 24 28.99 981.7 0.00
18 03:00 36 33 89 SW 5 G 10 28.95 980.4 0.00
18 02:00 37 34 89 SW 5 G 13 28.93 979.7 0.00
18 01:00 38 35 42 35 89 SW 6 G 19 28.90 978.7 0.00
18 00:00 38 35 88 SSW 8 G 17 28.89 978.4 0.88
17 23:00 39 36 89 SW 9 G 14 28.90 978.7 0.88
17 22:00 39 36 89 SSW 7 G 18 28.89 978.4 0.88
17 21:00 40 37 89 SW 9 G 21 28.89 978.4 0.88
17 20:00 39 35 86 SSW 7 G 23 28.87 977.7 0.88
17 19:00 42 39 48 37 88 SSW 7 G 19 28.88 978.0 0.06 0.88
17 18:00 42 39 90 S 9 G 23 28.86 977.3 0.88
17 17:00 42 38 86 S 9 G 27 28.86 977.3 0.88
17 16:00 43 39 84 S 9 G 25 28.84 976.7 0.06 0.88
17 15:00 46 37 72 S 8 G 16 28.81 975.7 0.88
17 14:00 48 38 68 S 9 G 24 28.80 975.3 0.06 0.88
17 13:00 46 37 46 34 70 SE 15 G 25 28.82 976.0 0.18 0.45 0.80 0.82
17 12:00 44 36 72 ESE 16 G 23 28.92 979.4 0.12 0.64
17 11:00 42 35 76 ESE 13 G 26 29.04 983.4 0.15 0.52
17 10:00 39 34 81 ESE 13 G 36 29.18 988.2 0.14 0.35 0.37
17 09:00 38 33 82 ESE 11 G 23 29.36 994.3 0.17 0.23
17 08:00 38 34 84 ESE 11 G 20 29.48 998.3 0.04 0.06
17 07:00 37 33 37 30 85 ESE 10 G 18 29.58 1001.7 0.02 0.02 0.02 0.02
17 06:00 37 34 88 ESE 9 G 18 29.65 1004.1 0.00

Data generated by WxSolution Version 1.9.1.8, Build 2020.02.16.